Time;durP1;ratioP1;P1;durP2;ratioP2;P2;SDS_P1;SDS_P2;PMS_P1;PMS_P2;Temp;Humidity;BMP_temperature;BMP_pressure;BME280_temperature;BME280_humidity;BME280_pressure;Samples;Min_cycle;Max_cycle;Signal;HPM_P1;HPM_P2
2023/04/08 00:02:20;;;;;;;58.28;10.07;;;5.80;99.90;;;;;;5038361;28;20021;-74
2023/04/08 00:04:45;;;;;;;174.55;14.02;;;5.90;99.90;;;;;;5038295;28;20075;-74
2023/04/08 00:07:11;;;;;;;58.53;10.75;;;5.90;99.90;;;;;;5038156;28;20108;-74
2023/04/08 00:09:37;;;;;;;54.63;11.65;;;5.90;99.90;;;;;;5039058;28;20036;-74
2023/04/08 00:12:03;;;;;;;60.65;10.43;;;5.80;99.90;;;;;;5038368;28;20025;-74
2023/04/08 00:14:29;;;;;;;44.72;9.88;;;5.80;99.90;;;;;;5038941;28;20032;-74
2023/04/08 00:16:54;;;;;;;60.08;12.13;;;5.70;99.90;;;;;;5038242;28;20026;-74
2023/04/08 00:19:20;;;;;;;54.33;10.90;;;5.70;99.90;;;;;;5038001;28;20049;-74
2023/04/08 00:21:46;;;;;;;62.60;10.93;;;5.70;99.90;;;;;;5037935;28;20045;-74
2023/04/08 00:24:12;;;;;;;63.92;11.38;;;5.70;99.90;;;;;;5039078;28;20026;-71
2023/04/08 00:26:37;;;;;;;52.88;11.57;;;5.70;99.90;;;;;;5037938;28;20097;-71
2023/04/08 00:29:03;;;;;;;80.38;12.98;;;5.60;99.90;;;;;;5038466;28;20033;-71
2023/04/08 00:31:29;;;;;;;31.95;10.02;;;5.60;99.90;;;;;;5038515;28;20025;-73
2023/04/08 00:33:54;;;;;;;19.70;8.68;;;5.70;99.90;;;;;;5038628;28;20104;-71
2023/04/08 00:36:20;;;;;;;30.52;9.43;;;5.70;99.90;;;;;;5038527;28;20105;-71
2023/04/08 00:38:45;;;;;;;38.95;9.65;;;5.70;99.90;;;;;;5037484;28;20110;-71
2023/04/08 00:41:11;;;;;;;60.28;9.70;;;5.70;99.90;;;;;;5037603;28;20028;-71
2023/04/08 00:43:37;;;;;;;29.98;9.38;;;5.60;99.90;;;;;;5038357;28;20060;-71
2023/04/08 00:46:04;;;;;;;47.53;9.10;;;5.50;99.90;;;;;;5037600;28;20026;-71
2023/04/08 00:48:30;;;;;;;48.42;9.60;;;5.50;99.90;;;;;;5037256;28;20110;-71
2023/04/08 00:50:56;;;;;;;44.60;9.00;;;5.50;99.90;;;;;;5038484;28;20048;-71
2023/04/08 00:53:21;;;;;;;117.15;12.10;;;5.50;99.90;;;;;;5037319;28;20088;-71
2023/04/08 00:55:47;;;;;;;98.10;12.38;;;5.40;99.90;;;;;;5037035;28;20025;-71
2023/04/08 00:58:13;;;;;;;73.10;10.43;;;5.20;99.90;;;;;;5037139;28;20028;-71
2023/04/08 01:00:45;;;;;;;96.72;13.05;;;5.10;99.90;;;;;;5037221;28;20034;-74
2023/04/08 01:03:17;;;;;;;56.47;10.15;;;5.00;99.90;;;;;;5038736;28;20049;-74
2023/04/08 01:05:50;;;;;;;76.97;13.48;;;5.00;99.90;;;;;;5038455;28;20025;-74
2023/04/08 01:08:16;;;;;;;69.47;10.38;;;4.90;99.90;;;;;;5038060;28;20075;-74
2023/04/08 01:10:47;;;;;;;88.78;11.55;;;4.80;99.90;;;;;;5037542;28;20030;-73
2023/04/08 01:13:17;;;;;;;64.20;13.15;;;4.80;99.90;;;;;;5036944;28;20026;-74
2023/04/08 01:15:44;;;;;;;61.10;11.60;;;4.80;99.90;;;;;;5037746;28;20022;-74
2023/04/08 01:18:12;;;;;;;60.42;10.27;;;4.80;99.90;;;;;;5036801;28;20032;-74
2023/04/08 01:20:40;;;;;;;61.78;10.27;;;4.80;99.90;;;;;;5037122;28;20025;-74
2023/04/08 01:24:05;;;;;;;72.15;11.05;;;4.70;99.90;;;;;;5037645;28;20136;-74
2023/04/08 01:26:31;;;;;;;69.20;9.35;;;4.60;99.90;;;;;;5019617;28;20026;-71
2023/04/08 01:29:00;;;;;;;82.25;11.40;;;4.60;99.90;;;;;;5019347;28;20048;-71
2023/04/08 01:31:26;;;;;;;113.78;12.13;;;4.50;99.90;;;;;;5019442;28;20064;-71
2023/04/08 01:33:54;;;;;;;78.63;11.27;;;4.50;99.90;;;;;;5019631;28;20036;-72
2023/04/08 01:36:22;;;;;;;72.72;10.25;;;4.50;99.90;;;;;;5019449;28;20029;-71
2023/04/08 01:38:49;;;;;;;67.10;9.77;;;4.50;99.90;;;;;;5019180;28;20033;-71
2023/04/08 01:41:17;;;;;;;136.07;14.27;;;4.50;99.90;;;;;;5019218;28;20049;-71
2023/04/08 01:43:44;;;;;;;79.75;10.85;;;4.40;99.90;;;;;;5019135;28;20033;-72
2023/04/08 01:46:11;;;;;;;166.48;16.15;;;4.40;99.90;;;;;;5019208;28;20044;-71
2023/04/08 01:48:37;;;;;;;148.93;13.30;;;4.40;99.90;;;;;;5018978;28;20049;-71
2023/04/08 01:51:05;;;;;;;116.75;10.07;;;4.40;99.90;;;;;;5035980;28;20029;-71
2023/04/08 01:53:31;;;;;;;112.35;11.85;;;4.40;99.90;;;;;;5019038;28;20060;-71
2023/04/08 01:56:04;;;;;;;111.80;12.15;;;4.40;99.90;;;;;;5035675;28;20080;-71
2023/04/08 01:58:38;;;;;;;107.57;12.50;;;4.30;99.90;;;;;;5036242;28;20154;-71
2023/04/08 02:01:09;;;;;;;102.03;11.10;;;4.30;99.90;;;;;;5036616;28;20053;-72
2023/04/08 02:03:36;;;;;;;32.53;7.38;;;4.40;99.90;;;;;;5037402;28;20026;-71
2023/04/08 02:06:01;;;;;;;93.40;10.23;;;4.40;99.90;;;;;;5036688;28;20025;-71
2023/04/08 02:08:27;;;;;;;22.08;6.38;;;4.40;99.90;;;;;;5035620;28;20116;-71
2023/04/08 02:10:52;;;;;;;21.95;6.32;;;4.30;99.90;;;;;;5036180;28;20113;-72
2023/04/08 02:13:18;;;;;;;33.85;5.47;;;4.30;99.90;;;;;;5036116;28;20055;-71
2023/04/08 02:15:52;;;;;;;50.05;6.95;;;4.30;99.90;;;;;;5037052;28;20033;-71
2023/04/08 02:18:25;;;;;;;83.07;9.95;;;4.30;99.90;;;;;;5036245;28;20036;-72
2023/04/08 02:21:20;;;;;;;26.10;5.20;;;4.30;99.90;;;;;;5037544;28;20017;-71
2023/04/08 02:23:50;;;;;;;40.30;5.15;;;4.30;99.90;;;;;;5034990;28;20029;-71
2023/04/08 02:26:16;;;;;;;18.70;4.32;;;4.10;99.90;;;;;;5035916;28;20030;-74
2023/04/08 02:28:42;;;;;;;20.58;4.88;;;4.10;99.90;;;;;;5036884;28;20029;-74
2023/04/08 02:31:13;;;;;;;53.17;7.07;;;4.10;99.90;;;;;;5036221;28;20025;-74
2023/04/08 02:33:39;;;;;;;87.55;8.23;;;4.10;99.90;;;;;;5036525;28;20029;-74
2023/04/08 02:36:05;;;;;;;83.32;8.20;;;4.20;99.90;;;;;;5036754;28;20018;-74
2023/04/08 02:38:31;;;;;;;103.97;8.38;;;4.10;99.90;;;;;;5036446;28;20119;-74
2023/04/08 02:40:57;;;;;;;82.65;7.10;;;3.90;99.90;;;;;;5036105;28;20029;-74
2023/04/08 02:43:30;;;;;;;84.50;7.75;;;3.90;99.90;;;;;;5036738;28;20018;-74
2023/04/08 02:45:57;;;;;;;36.58;5.38;;;4.00;99.90;;;;;;5035881;28;20030;-74
2023/04/08 02:48:23;;;;;;;32.03;5.13;;;4.10;99.90;;;;;;5036604;28;20075;-74
2023/04/08 02:50:48;;;;;;;29.10;5.50;;;4.10;99.90;;;;;;5035994;28;20025;-74
2023/04/08 02:53:14;;;;;;;32.00;4.88;;;4.10;99.90;;;;;;5035796;28;20036;-71
2023/04/08 02:55:40;;;;;;;29.90;6.18;;;4.10;99.90;;;;;;5035905;28;20075;-74
2023/04/08 02:58:05;;;;;;;18.25;4.70;;;4.10;99.90;;;;;;5035739;28;20038;-74
2023/04/08 03:00:31;;;;;;;42.40;4.65;;;4.20;99.90;;;;;;5036038;28;20032;-71
2023/04/08 03:02:57;;;;;;;53.75;5.55;;;4.20;99.90;;;;;;5036983;28;20029;-74
2023/04/08 03:05:23;;;;;;;15.23;4.90;;;4.30;99.90;;;;;;5035561;28;20025;-71
2023/04/08 03:07:48;;;;;;;33.17;6.07;;;4.40;99.90;;;;;;5036601;28;20029;-74
2023/04/08 03:10:14;;;;;;;18.98;4.75;;;4.40;99.90;;;;;;5035460;28;20033;-74
2023/04/08 03:12:39;;;;;;;33.30;5.25;;;4.40;99.90;;;;;;5035712;28;20033;-74
2023/04/08 03:15:06;;;;;;;45.45;5.05;;;4.30;99.90;;;;;;5036723;28;20033;-73
2023/04/08 03:17:33;;;;;;;30.33;5.13;;;4.10;99.90;;;;;;5035451;28;20116;-74
2023/04/08 03:19:59;;;;;;;14.38;5.05;;;4.10;99.90;;;;;;5038559;28;20247;-74
2023/04/08 03:22:25;;;;;;;17.52;4.20;;;4.00;99.90;;;;;;5039869;28;20022;-74
2023/04/08 03:24:50;;;;;;;8.45;3.33;;;4.10;99.90;;;;;;5039091;28;20024;-74
2023/04/08 03:27:16;;;;;;;12.23;3.10;;;4.10;99.90;;;;;;5038845;28;20018;-74
2023/04/08 03:29:42;;;;;;;6.25;2.72;;;4.00;99.90;;;;;;5038871;28;20033;-74
2023/04/08 03:32:07;;;;;;;14.95;4.43;;;3.90;99.90;;;;;;5038833;28;20026;-74
2023/04/08 03:34:34;;;;;;;10.25;3.20;;;3.80;99.90;;;;;;5039173;28;20017;-71
2023/04/08 03:37:00;;;;;;;4.03;2.88;;;3.80;99.90;;;;;;5038848;28;20036;-71
2023/04/08 03:39:25;;;;;;;8.10;3.00;;;3.70;99.90;;;;;;5038943;28;20033;-73
2023/04/08 03:41:51;;;;;;;4.35;2.90;;;3.70;99.90;;;;;;5038699;28;20022;-74
2023/04/08 03:44:16;;;;;;;10.48;2.78;;;3.70;99.90;;;;;;5039664;28;20029;-73
2023/04/08 03:46:42;;;;;;;10.20;3.05;;;3.70;99.90;;;;;;5038696;28;20132;-71
2023/04/08 03:49:07;;;;;;;10.77;2.90;;;3.70;99.90;;;;;;5038433;28;20025;-73
2023/04/08 03:51:33;;;;;;;9.50;3.08;;;3.60;99.90;;;;;;5039100;28;20071;-74
2023/04/08 03:53:58;;;;;;;26.23;4.22;;;3.60;99.90;;;;;;5038844;28;20021;-71
2023/04/08 03:56:24;;;;;;;18.30;3.97;;;3.60;99.90;;;;;;5039728;28;20037;-71
2023/04/08 03:58:50;;;;;;;15.80;4.35;;;3.60;99.90;;;;;;5039207;28;20025;-71
2023/04/08 04:01:15;;;;;;;10.25;3.58;;;3.60;99.90;;;;;;5039339;28;20029;-74
2023/04/08 04:03:41;;;;;;;14.23;3.42;;;3.70;99.90;;;;;;5039235;28;20047;-74
2023/04/08 04:06:06;;;;;;;27.45;4.38;;;3.80;99.90;;;;;;5039207;28;20085;-74
2023/04/08 04:08:32;;;;;;;5.72;3.42;;;3.80;99.90;;;;;;5038401;28;20032;-74
2023/04/08 04:10:58;;;;;;;8.55;3.50;;;3.70;99.90;;;;;;5039140;28;20021;-74
2023/04/08 04:13:24;;;;;;;11.52;3.75;;;3.60;99.90;;;;;;5038200;28;20108;-74
2023/04/08 04:15:50;;;;;;;7.45;3.30;;;3.50;99.90;;;;;;5039133;28;20095;-74
2023/04/08 04:18:15;;;;;;;4.72;2.58;;;3.40;99.90;;;;;;5038534;28;20026;-74
2023/04/08 04:20:41;;;;;;;4.10;2.70;;;3.30;99.90;;;;;;5037964;28;20025;-74
2023/04/08 04:23:08;;;;;;;4.63;2.88;;;3.40;99.90;;;;;;5038102;28;20045;-74
2023/04/08 04:25:33;;;;;;;5.72;2.95;;;3.50;99.90;;;;;;5037925;28;20076;-74
2023/04/08 04:28:00;;;;;;;4.05;2.35;;;3.60;99.90;;;;;;5038534;28;20060;-73
2023/04/08 04:30:26;;;;;;;4.07;2.50;;;3.70;99.90;;;;;;5037404;28;20033;-71
2023/04/08 04:32:51;;;;;;;5.78;2.80;;;3.80;99.90;;;;;;5037851;28;20018;-71
2023/04/08 04:35:17;;;;;;;3.95;2.42;;;3.80;99.90;;;;;;5038122;28;20028;-74
2023/04/08 04:37:42;;;;;;;3.15;2.50;;;3.80;99.90;;;;;;5037889;28;20034;-73
2023/04/08 04:40:08;;;;;;;2.85;2.20;;;3.90;99.90;;;;;;5037629;28;20028;-72
2023/04/08 04:42:33;;;;;;;3.72;2.50;;;3.90;99.90;;;;;;5037920;28;20026;-71
2023/04/08 04:44:59;;;;;;;3.30;2.67;;;3.80;99.90;;;;;;5037792;28;20057;-74
2023/04/08 04:47:25;;;;;;;4.53;2.90;;;3.80;99.90;;;;;;5038298;28;20018;-74
2023/04/08 04:49:51;;;;;;;3.60;2.47;;;3.70;99.90;;;;;;5038348;28;20029;-71
2023/04/08 04:52:16;;;;;;;5.15;3.10;;;3.70;99.90;;;;;;5037699;28;20112;-71
2023/04/08 04:54:42;;;;;;;4.28;2.90;;;3.70;99.90;;;;;;5038437;28;20022;-71
2023/04/08 04:57:08;;;;;;;5.20;3.28;;;3.70;99.90;;;;;;5038225;28;20029;-71
2023/04/08 04:59:33;;;;;;;5.65;3.83;;;3.70;99.90;;;;;;5037976;28;20083;-71
2023/04/08 05:01:59;;;;;;;5.55;3.90;;;3.70;99.90;;;;;;5038087;28;20038;-73
2023/04/08 05:04:25;;;;;;;7.22;4.00;;;3.80;99.90;;;;;;5037101;28;20029;-71
2023/04/08 05:06:50;;;;;;;5.32;3.50;;;3.90;99.90;;;;;;5037967;28;20030;-71
2023/04/08 05:09:16;;;;;;;4.82;3.67;;;4.00;99.90;;;;;;5036948;28;20022;-71
2023/04/08 05:11:42;;;;;;;4.53;3.05;;;4.10;99.90;;;;;;5038158;28;20022;-71
2023/04/08 05:14:07;;;;;;;4.28;3.20;;;4.20;99.90;;;;;;5036966;28;20021;-71
2023/04/08 05:16:33;;;;;;;5.07;3.22;;;4.20;99.90;;;;;;5037314;28;20028;-71
2023/04/08 05:18:59;;;;;;;7.28;3.00;;;4.20;99.90;;;;;;5037764;28;20120;-71
2023/04/08 05:21:26;;;;;;;5.68;3.83;;;4.20;99.90;;;;;;5037728;28;20116;-71
2023/04/08 05:23:52;;;;;;;5.45;3.58;;;4.20;99.90;;;;;;5039116;28;20032;-71
2023/04/08 05:26:21;;;;;;;5.80;3.60;;;4.30;99.90;;;;;;5039861;28;20028;-74
2023/04/08 05:28:47;;;;;;;8.55;5.60;;;4.30;99.90;;;;;;5037646;28;20030;-74
2023/04/08 05:31:17;;;;;;;11.70;7.50;;;4.30;99.90;;;;;;5037051;28;20155;-71
2023/04/08 05:33:42;;;;;;;8.43;6.15;;;4.30;99.90;;;;;;5044023;28;20105;-71
2023/04/08 05:36:10;;;;;;;5.85;4.40;;;4.40;99.90;;;;;;5037672;28;20053;-71
2023/04/08 05:38:35;;;;;;;9.05;4.43;;;4.40;99.90;;;;;;5036410;28;20037;-74
2023/04/08 05:41:01;;;;;;;5.13;3.75;;;4.50;99.90;;;;;;5036574;28;20032;-74
2023/04/08 05:43:27;;;;;;;7.82;3.92;;;4.50;99.90;;;;;;5035965;28;20022;-74
2023/04/08 05:45:52;;;;;;;7.93;3.70;;;4.50;99.90;;;;;;5038594;28;20064;-74
2023/04/08 05:48:18;;;;;;;6.57;3.70;;;4.40;99.90;;;;;;5036292;28;20025;-71
2023/04/08 05:50:43;;;;;;;7.22;3.75;;;4.40;99.90;;;;;;5036471;28;20063;-71
2023/04/08 05:53:09;;;;;;;6.20;3.65;;;4.40;99.90;;;;;;5039714;28;20026;-71
2023/04/08 05:55:35;;;;;;;6.47;4.03;;;4.40;99.90;;;;;;5037298;28;20024;-71
2023/04/08 05:58:00;;;;;;;7.22;3.92;;;4.40;99.90;;;;;;5039556;28;20040;-74
2023/04/08 06:00:26;;;;;;;5.88;3.65;;;4.50;99.90;;;;;;5036320;28;20025;-74
2023/04/08 06:02:52;;;;;;;6.10;4.07;;;4.40;99.90;;;;;;5037179;28;20022;-74
2023/04/08 06:05:18;;;;;;;8.32;5.00;;;4.50;99.90;;;;;;5036321;28;20022;-74
2023/04/08 06:07:43;;;;;;;5.32;3.65;;;4.50;99.90;;;;;;5036160;28;20051;-74
2023/04/08 06:10:09;;;;;;;6.80;4.40;;;4.60;99.90;;;;;;5036412;28;20026;-74
2023/04/08 06:12:37;;;;;;;8.48;4.93;;;4.60;99.90;;;;;;5036830;28;20021;-73
2023/04/08 06:15:03;;;;;;;8.25;4.63;;;4.60;99.90;;;;;;5036393;28;20041;-74
2023/04/08 06:17:28;;;;;;;8.02;4.80;;;4.70;99.90;;;;;;5036106;28;20022;-74
2023/04/08 06:19:54;;;;;;;7.85;4.88;;;4.70;99.90;;;;;;5036120;28;20032;-74
2023/04/08 06:22:20;;;;;;;8.43;4.57;;;4.70;99.90;;;;;;5036182;28;20079;-74
2023/04/08 06:24:48;;;;;;;6.65;3.80;;;4.80;99.90;;;;;;5037998;28;20021;-74
2023/04/08 06:27:14;;;;;;;7.68;4.28;;;4.80;99.90;;;;;;5037644;28;20029;-74
2023/04/08 06:29:40;;;;;;;6.30;4.28;;;4.90;99.90;;;;;;5038323;28;20041;-73
2023/04/08 06:32:06;;;;;;;7.72;4.38;;;4.90;99.90;;;;;;5038176;28;20017;-74
2023/04/08 06:34:31;;;;;;;7.50;4.68;;;4.90;99.90;;;;;;5038635;28;20013;-71
2023/04/08 06:36:57;;;;;;;9.30;4.45;;;4.90;99.90;;;;;;5038536;28;20018;-74
2023/04/08 06:39:23;;;;;;;7.10;4.80;;;4.80;99.90;;;;;;5041722;28;20092;-74
2023/04/08 06:41:48;;;;;;;8.75;5.35;;;4.70;99.90;;;;;;5036966;28;20080;-74
2023/04/08 06:44:14;;;;;;;10.52;5.55;;;4.70;99.90;;;;;;5037417;28;20018;-71
2023/04/08 06:46:40;;;;;;;10.35;5.60;;;4.60;99.90;;;;;;5038490;28;20112;-73
2023/04/08 06:49:05;;;;;;;11.15;5.43;;;4.60;99.90;;;;;;5037543;28;20054;-71
2023/04/08 06:51:31;;;;;;;8.80;5.28;;;4.70;99.90;;;;;;5036864;28;20029;-73
2023/04/08 06:53:57;;;;;;;11.80;5.57;;;4.80;99.90;;;;;;5039386;28;20026;-74
2023/04/08 06:56:25;;;;;;;11.93;6.20;;;4.80;99.90;;;;;;5040998;28;20116;-71
2023/04/08 06:58:51;;;;;;;9.88;6.03;;;5.00;99.90;;;;;;5042819;28;20021;-71
2023/04/08 07:01:16;;;;;;;9.05;5.15;;;5.10;99.90;;;;;;5044039;28;20021;-70
2023/04/08 07:03:42;;;;;;;8.27;5.20;;;5.20;99.90;;;;;;5039954;28;20045;-71
2023/04/08 07:06:08;;;;;;;8.20;5.55;;;5.30;99.90;;;;;;5039685;28;20025;-71
2023/04/08 07:08:33;;;;;;;11.57;6.28;;;5.30;99.90;;;;;;5040837;28;20025;-74
2023/04/08 07:10:59;;;;;;;13.95;6.60;;;5.30;99.90;;;;;;5040653;28;20033;-74
2023/04/08 07:13:25;;;;;;;10.18;5.22;;;5.40;99.90;;;;;;5040754;28;20022;-71
2023/04/08 07:15:51;;;;;;;13.00;6.32;;;5.40;99.90;;;;;;5039515;28;20048;-72
2023/04/08 07:18:16;;;;;;;8.85;5.97;;;5.30;99.90;;;;;;5039757;28;20025;-71
2023/04/08 07:20:42;;;;;;;12.63;6.63;;;5.30;99.90;;;;;;5040657;28;20032;-71
2023/04/08 07:23:07;;;;;;;16.13;8.88;;;5.30;99.90;;;;;;5040745;28;20025;-71
2023/04/08 07:25:36;;;;;;;17.15;7.40;;;5.30;99.90;;;;;;5039392;28;20025;-71
2023/04/08 07:28:01;;;;;;;11.80;7.30;;;5.30;99.90;;;;;;5039122;28;20037;-71
2023/04/08 07:30:27;;;;;;;13.75;6.60;;;5.40;99.90;;;;;;5040047;28;20022;-70
2023/04/08 07:32:54;;;;;;;13.40;7.20;;;5.40;99.90;;;;;;5039802;28;20030;-71
2023/04/08 07:35:23;;;;;;;12.35;6.90;;;5.50;99.90;;;;;;5039051;28;20025;-70
2023/04/08 07:37:50;;;;;;;10.57;6.60;;;5.50;99.90;;;;;;5039527;28;20026;-71
2023/04/08 07:40:15;;;;;;;13.95;6.72;;;5.50;99.90;;;;;;5038709;28;20029;-71
2023/04/08 07:42:41;;;;;;;11.88;6.25;;;5.50;99.90;;;;;;5039964;28;20025;-71
2023/04/08 07:45:07;;;;;;;10.10;5.97;;;5.50;99.90;;;;;;5038895;28;20021;-71
2023/04/08 07:47:33;;;;;;;12.48;6.85;;;5.60;99.90;;;;;;5038561;28;20044;-71
2023/04/08 07:49:58;;;;;;;13.38;6.55;;;5.60;99.90;;;;;;5039044;28;20069;-71
2023/04/08 07:52:25;;;;;;;14.15;6.13;;;5.60;99.90;;;;;;5039482;28;20076;-71
2023/04/08 07:54:50;;;;;;;15.38;7.30;;;5.60;99.90;;;;;;5038596;28;20037;-71
2023/04/08 07:57:16;;;;;;;11.48;6.85;;;5.60;99.90;;;;;;5038486;28;20026;-71
2023/04/08 07:59:41;;;;;;;16.17;7.20;;;5.70;99.90;;;;;;5038767;28;20029;-71
2023/04/08 08:02:07;;;;;;;12.70;6.75;;;5.70;99.90;;;;;;5038531;28;20022;-71
2023/04/08 08:04:33;;;;;;;16.67;8.25;;;5.70;99.90;;;;;;5038144;28;20120;-71
2023/04/08 08:06:58;;;;;;;17.25;9.55;;;5.70;99.90;;;;;;5037978;28;20029;-71
2023/04/08 08:09:24;;;;;;;21.10;9.07;;;5.70;99.90;;;;;;5038246;28;20030;-71
2023/04/08 08:11:49;;;;;;;13.43;7.85;;;5.80;99.90;;;;;;5039188;28;20021;-71
2023/04/08 08:14:15;;;;;;;17.52;7.80;;;5.80;99.90;;;;;;5039156;28;20025;-71
2023/04/08 08:16:41;;;;;;;11.90;6.80;;;5.80;99.90;;;;;;5039129;28;20021;-70
2023/04/08 08:19:07;;;;;;;16.35;7.32;;;5.90;99.90;;;;;;5038845;28;20026;-71
2023/04/08 08:21:36;;;;;;;15.60;7.40;;;6.00;99.90;;;;;;5038142;28;20025;-71
2023/04/08 08:24:01;;;;;;;16.35;8.23;;;6.00;99.90;;;;;;5038658;28;20029;-71
2023/04/08 08:26:27;;;;;;;14.15;7.68;;;6.00;99.90;;;;;;5039755;28;20037;-71
2023/04/08 08:28:53;;;;;;;14.10;8.73;;;6.00;99.90;;;;;;5037800;28;20025;-71
2023/04/08 08:31:19;;;;;;;20.92;8.18;;;6.10;99.90;;;;;;5039063;28;20025;-71
2023/04/08 08:33:45;;;;;;;14.43;7.97;;;6.20;99.90;;;;;;5038263;28;20026;-71
2023/04/08 08:36:11;;;;;;;19.63;8.63;;;6.30;99.90;;;;;;5038542;28;20025;-71
2023/04/08 08:38:36;;;;;;;13.38;8.45;;;6.30;99.90;;;;;;5081480;22;20036;-70
2023/04/08 08:41:03;;;;;;;20.42;9.45;;;6.40;99.90;;;;;;5077731;28;20060;-70
2023/04/08 08:43:32;;;;;;;13.93;8.10;;;6.50;99.90;;;;;;5078430;28;20055;-70
2023/04/08 08:45:58;;;;;;;16.45;8.82;;;6.50;99.90;;;;;;5077611;28;20027;-70
2023/04/08 08:48:24;;;;;;;15.75;8.75;;;6.60;99.90;;;;;;5077726;28;20024;-70
2023/04/08 08:50:50;;;;;;;17.05;9.32;;;6.60;99.90;;;;;;5077363;28;20017;-70
2023/04/08 08:53:15;;;;;;;19.88;9.23;;;6.70;99.90;;;;;;5077401;28;20028;-70
2023/04/08 08:55:41;;;;;;;14.57;8.90;;;6.70;99.90;;;;;;5077307;28;20032;-70
2023/04/08 08:58:07;;;;;;;16.02;8.45;;;6.60;99.90;;;;;;5077463;28;20050;-70
2023/04/08 09:00:34;;;;;;;15.98;9.10;;;6.60;99.90;;;;;;5077450;28;20025;-70
2023/04/08 09:03:19;;;;;;;16.83;8.43;;;6.70;99.90;;;;;;5077426;28;20070;-70
2023/04/08 09:05:50;;;;;;;16.08;8.95;;;6.90;99.90;;;;;;5078163;28;20040;-70
2023/04/08 09:08:25;;;;;;;17.05;8.88;;;7.00;99.90;;;;;;5077016;28;20024;-70
2023/04/08 09:10:55;;;;;;;13.27;8.20;;;7.00;99.90;;;;;;5078267;28;20024;-70
2023/04/08 09:13:24;;;;;;;15.80;8.57;;;7.00;99.90;;;;;;5077890;28;20028;-70
2023/04/08 09:16:04;;;;;;;14.30;8.98;;;7.00;99.90;;;;;;5077808;28;20016;-70
2023/04/08 09:18:31;;;;;;;19.75;8.75;;;7.10;99.90;;;;;;5077920;28;20033;-70
2023/04/08 09:20:59;;;;;;;15.90;8.50;;;7.10;99.90;;;;;;5076843;28;20025;-70
2023/04/08 09:23:42;;;;;;;22.77;9.95;;;7.10;99.90;;;;;;5077238;28;20060;-70
2023/04/08 09:26:13;;;;;;;15.57;8.48;;;7.10;99.90;;;;;;5077617;28;20035;-70
2023/04/08 09:28:40;;;;;;;18.27;9.35;;;7.10;99.90;;;;;;5076589;28;20020;-70
2023/04/08 09:31:26;;;;;;;17.58;9.52;;;7.20;99.90;;;;;;5076885;28;20024;-71
2023/04/08 09:33:53;;;;;;;18.63;9.80;;;7.20;99.90;;;;;;5077509;28;20017;-72
2023/04/08 09:36:19;;;;;;;17.67;9.43;;;7.20;99.90;;;;;;5076599;28;20030;-71
2023/04/08 09:38:45;;;;;;;18.85;9.05;;;7.30;99.90;;;;;;5076668;28;20124;-71
2023/04/08 09:41:16;;;;;;;16.95;9.32;;;7.30;99.90;;;;;;5076509;28;20030;-71
2023/04/08 09:43:51;;;;;;;18.50;9.50;;;7.30;99.90;;;;;;5077463;28;20064;-71
2023/04/08 09:46:25;;;;;;;21.63;9.50;;;7.40;99.90;;;;;;5077205;28;20033;-71
2023/04/08 09:49:09;;;;;;;20.58;9.82;;;7.40;99.90;;;;;;5076291;28;20029;-71
2023/04/08 09:51:51;;;;;;;21.33;10.00;;;7.50;99.90;;;;;;5076472;28;20028;-71
2023/04/08 09:54:20;;;;;;;27.35;11.07;;;7.60;99.90;;;;;;5076932;28;20024;-71
2023/04/08 09:56:59;;;;;;;19.42;9.50;;;7.70;99.90;;;;;;5076396;28;20086;-71
2023/04/08 09:59:30;;;;;;;18.73;9.73;;;7.80;99.90;;;;;;5077017;28;20060;-71
2023/04/08 10:02:04;;;;;;;16.98;8.80;;;7.90;99.90;;;;;;5077102;28;20035;-71
2023/04/08 10:04:34;;;;;;;17.90;9.07;;;7.90;99.90;;;;;;5076830;28;20028;-71
2023/04/08 10:07:05;;;;;;;17.65;9.85;;;7.90;99.90;;;;;;5076924;28;20025;-71
2023/04/08 10:09:31;;;;;;;18.45;9.52;;;8.00;99.90;;;;;;5076380;28;20060;-71
2023/04/08 10:11:57;;;;;;;19.65;10.60;;;8.00;99.90;;;;;;5077094;28;20021;-71
2023/04/08 10:14:25;;;;;;;13.90;9.00;;;8.00;99.90;;;;;;5076083;28;20025;-71
2023/04/08 10:17:12;;;;;;;17.27;8.73;;;8.00;99.90;;;;;;5076392;28;20043;-71
2023/04/08 10:19:40;;;;;;;21.90;9.82;;;8.10;99.90;;;;;;5076233;28;20095;-71
2023/04/08 10:22:28;;;;;;;20.17;9.73;;;8.20;99.90;;;;;;5076398;28;20170;-71
2023/04/08 10:25:15;;;;;;;19.92;8.50;;;8.30;99.90;;;;;;5076359;28;20039;-71
2023/04/08 10:27:42;;;;;;;23.20;9.23;;;8.30;99.90;;;;;;5076032;28;20025;-71
2023/04/08 10:30:31;;;;;;;15.30;8.40;;;8.40;99.90;;;;;;5079946;28;20107;-71
2023/04/08 10:33:00;;;;;;;14.82;8.30;;;8.50;99.90;;;;;;5074816;28;20025;-71
2023/04/08 10:35:35;;;;;;;18.17;8.95;;;8.60;99.90;;;;;;5080166;28;20021;-71
2023/04/08 10:38:01;;;;;;;19.50;10.25;;;8.60;99.90;;;;;;5080006;28;20039;-71
2023/04/08 10:40:27;;;;;;;14.15;7.60;;;8.90;99.90;;;;;;5080037;28;20084;-71
2023/04/08 10:42:57;;;;;;;15.50;8.43;;;9.00;99.90;;;;;;5080322;28;20067;-71
2023/04/08 10:45:23;;;;;;;15.02;7.60;;;9.20;99.90;;;;;;5079798;28;20024;-71
2023/04/08 10:47:49;;;;;;;17.17;7.25;;;9.30;99.90;;;;;;5080646;28;20044;-71
2023/04/08 10:50:17;;;;;;;11.35;6.43;;;9.40;99.90;;;;;;5080912;28;20036;-71
2023/04/08 10:52:53;;;;;;;12.93;7.18;;;9.50;99.90;;;;;;5080649;28;20031;-72
2023/04/08 10:55:26;;;;;;;13.00;7.57;;;9.50;99.90;;;;;;5080642;28;20023;-71
2023/04/08 10:57:52;;;;;;;11.57;6.90;;;9.60;99.90;;;;;;5079614;28;20021;-72
2023/04/08 11:00:30;;;;;;;11.02;6.65;;;9.50;99.90;;;;;;5079479;28;20056;-71
2023/04/08 11:03:06;;;;;;;14.43;7.47;;;9.50;99.90;;;;;;5079982;28;20021;-71
2023/04/08 11:05:32;;;;;;;14.10;6.93;;;9.60;99.90;;;;;;5079571;28;20039;-71
2023/04/08 11:07:59;;;;;;;10.88;6.65;;;9.60;99.90;;;;;;5079592;28;20052;-71
2023/04/08 11:10:25;;;;;;;10.07;6.10;;;9.60;99.90;;;;;;5079769;28;20021;-71
2023/04/08 11:12:55;;;;;;;13.27;6.45;;;9.60;99.90;;;;;;5079642;28;20075;-71
2023/04/08 11:15:23;;;;;;;12.10;6.65;;;9.60;99.90;;;;;;5079550;28;20096;-71
2023/04/08 11:17:50;;;;;;;12.55;6.57;;;9.50;99.90;;;;;;5079425;28;20021;-72
2023/04/08 11:20:16;;;;;;;10.45;6.25;;;9.50;99.90;;;;;;5079176;28;20028;-71
2023/04/08 11:22:43;;;;;;;12.40;6.43;;;9.60;99.90;;;;;;5079628;28;20085;-72
2023/04/08 11:25:10;;;;;;;10.82;6.78;;;9.60;99.90;;;;;;5080078;28;20029;-71
2023/04/08 11:27:36;;;;;;;14.93;6.95;;;9.60;99.90;;;;;;5079311;28;20035;-71
2023/04/08 11:30:03;;;;;;;12.63;7.18;;;9.70;99.90;;;;;;5079309;28;20033;-71
2023/04/08 11:32:29;;;;;;;14.85;7.10;;;9.70;99.90;;;;;;5078925;28;20028;-71
2023/04/08 11:34:54;;;;;;;11.88;5.95;;;9.80;99.90;;;;;;5079229;28;20021;-71
2023/04/08 11:37:21;;;;;;;11.55;6.40;;;9.90;99.90;;;;;;5079663;28;20028;-71
2023/04/08 11:39:46;;;;;;;12.20;7.05;;;9.90;99.90;;;;;;5078789;28;20108;-72
2023/04/08 11:42:28;;;;;;;10.38;6.43;;;10.00;99.90;;;;;;5078508;28;20135;-71
2023/04/08 11:44:54;;;;;;;;;;;10.10;99.90;;;;;;5080019;28;20025;-71
2023/04/08 11:47:19;;;;;;;13.20;6.40;;;10.20;99.90;;;;;;5078628;28;19904;-72
2023/04/08 11:49:46;;;;;;;12.40;6.15;;;10.20;99.90;;;;;;5079007;28;20058;-71
2023/04/08 11:52:12;;;;;;;10.88;6.30;;;10.20;99.90;;;;;;5079460;28;20055;-71
2023/04/08 11:54:41;;;;;;;9.32;5.47;;;10.10;99.90;;;;;;5078694;28;20074;-71
2023/04/08 11:57:08;;;;;;;12.57;6.22;;;10.10;99.90;;;;;;5078558;28;20017;-71
2023/04/08 11:59:35;;;;;;;10.80;5.85;;;10.20;99.90;;;;;;5078794;28;20027;-72
2023/04/08 12:02:01;;;;;;;12.95;7.22;;;10.20;99.90;;;;;;5078449;28;20186;-71
2023/04/08 12:04:27;;;;;;;11.32;6.85;;;10.10;99.90;;;;;;5079279;28;20033;-71
2023/04/08 12:06:52;;;;;;;11.45;6.28;;;10.10;99.90;;;;;;5078399;28;20043;-72
2023/04/08 12:09:18;;;;;;;14.32;6.65;;;10.10;99.90;;;;;;5078231;28;20020;-71
2023/04/08 12:11:43;;;;;;;12.02;6.88;;;10.10;99.90;;;;;;5078817;28;20020;-71
2023/04/08 12:14:09;;;;;;;13.52;7.05;;;10.20;99.90;;;;;;5079166;28;20020;-71
2023/04/08 12:16:35;;;;;;;10.10;5.85;;;10.30;99.90;;;;;;5078944;28;20020;-72
2023/04/08 12:19:00;;;;;;;11.35;6.50;;;10.40;99.90;;;;;;5079263;28;20109;-72
2023/04/08 12:21:26;;;;;;;12.90;6.70;;;10.50;99.90;;;;;;5078012;28;20070;-71
2023/04/08 12:23:52;;;;;;;12.40;6.22;;;10.60;99.90;;;;;;5078222;28;20083;-72
2023/04/08 12:26:18;;;;;;;12.18;7.15;;;10.60;99.90;;;;;;5078607;28;20048;-71
2023/04/08 12:28:44;;;;;;;9.13;5.70;;;10.60;99.90;;;;;;5079265;28;20032;-71
2023/04/08 12:31:10;;;;;;;13.18;6.00;;;10.70;99.90;;;;;;5077950;28;20027;-71
2023/04/08 12:33:36;;;;;;;10.90;6.25;;;10.70;99.90;;;;;;5078657;28;20052;-72
2023/04/08 12:36:01;;;;;;;13.15;6.53;;;10.70;99.90;;;;;;5078321;28;20031;-71
2023/04/08 12:38:27;;;;;;;11.73;6.75;;;10.70;99.90;;;;;;5077592;28;20036;-71
2023/04/08 12:40:54;;;;;;;11.93;6.65;;;10.70;99.90;;;;;;5077997;28;20025;-72
2023/04/08 12:43:19;;;;;;;13.68;6.90;;;10.70;99.90;;;;;;5077697;28;20029;-72
2023/04/08 12:45:45;;;;;;;16.38;7.55;;;10.70;99.90;;;;;;5077769;28;20027;-72
2023/04/08 12:48:11;;;;;;;15.52;7.85;;;10.70;99.90;;;;;;5077375;28;20050;-71
2023/04/08 12:50:36;;;;;;;12.82;7.70;;;10.80;99.90;;;;;;5077451;28;20016;-72